sensor_id;sensor_type;location;lat;lon;timestamp;P1;durP1;ratioP1;P2;durP2;ratioP2
14704;SDS011;7442;50.840;3.396;2022-12-18T00:01:38;50.55;;;28.38;;
14704;SDS011;7442;50.840;3.396;2022-12-18T00:04:12;51.18;;;29.00;;
14704;SDS011;7442;50.840;3.396;2022-12-18T00:06:47;49.88;;;28.25;;
14704;SDS011;7442;50.840;3.396;2022-12-18T00:09:17;53.55;;;28.73;;
14704;SDS011;7442;50.840;3.396;2022-12-18T00:11:47;46.65;;;27.95;;
14704;SDS011;7442;50.840;3.396;2022-12-18T00:14:19;51.83;;;28.60;;
14704;SDS011;7442;50.840;3.396;2022-12-18T00:16:49;48.05;;;27.02;;
14704;SDS011;7442;50.840;3.396;2022-12-18T00:19:19;51.33;;;29.12;;
14704;SDS011;7442;50.840;3.396;2022-12-18T00:21:49;48.70;;;27.45;;
14704;SDS011;7442;50.840;3.396;2022-12-18T00:24:19;45.92;;;28.10;;
14704;SDS011;7442;50.840;3.396;2022-12-18T00:26:50;47.23;;;27.90;;
14704;SDS011;7442;50.840;3.396;2022-12-18T00:29:20;44.48;;;26.37;;
14704;SDS011;7442;50.840;3.396;2022-12-18T00:31:50;49.20;;;28.55;;
14704;SDS011;7442;50.840;3.396;2022-12-18T00:34:20;43.65;;;26.05;;
14704;SDS011;7442;50.840;3.396;2022-12-18T00:36:50;43.70;;;25.50;;
14704;SDS011;7442;50.840;3.396;2022-12-18T00:39:20;42.70;;;24.90;;
14704;SDS011;7442;50.840;3.396;2022-12-18T00:41:50;42.08;;;25.77;;
14704;SDS011;7442;50.840;3.396;2022-12-18T00:44:38;38.88;;;25.05;;
14704;SDS011;7442;50.840;3.396;2022-12-18T00:47:08;39.75;;;24.70;;
14704;SDS011;7442;50.840;3.396;2022-12-18T00:49:39;38.15;;;23.40;;
14704;SDS011;7442;50.840;3.396;2022-12-18T00:52:12;38.42;;;24.90;;
14704;SDS011;7442;50.840;3.396;2022-12-18T00:54:42;38.73;;;24.47;;
14704;SDS011;7442;50.840;3.396;2022-12-18T00:57:12;38.38;;;24.02;;
14704;SDS011;7442;50.840;3.396;2022-12-18T00:59:42;37.85;;;23.87;;
14704;SDS011;7442;50.840;3.396;2022-12-18T01:02:12;33.85;;;23.35;;
14704;SDS011;7442;50.840;3.396;2022-12-18T01:04:42;38.65;;;24.63;;
14704;SDS011;7442;50.840;3.396;2022-12-18T01:07:12;36.70;;;23.87;;
14704;SDS011;7442;50.840;3.396;2022-12-18T01:09:43;35.43;;;23.10;;
14704;SDS011;7442;50.840;3.396;2022-12-18T01:12:13;41.02;;;23.42;;
14704;SDS011;7442;50.840;3.396;2022-12-18T01:14:43;33.33;;;22.90;;
14704;SDS011;7442;50.840;3.396;2022-12-18T01:17:13;31.90;;;22.55;;
14704;SDS011;7442;50.840;3.396;2022-12-18T01:19:43;36.33;;;22.17;;
14704;SDS011;7442;50.840;3.396;2022-12-18T01:22:13;36.42;;;22.37;;
14704;SDS011;7442;50.840;3.396;2022-12-18T01:24:43;36.00;;;21.80;;
14704;SDS011;7442;50.840;3.396;2022-12-18T01:27:13;32.55;;;21.10;;
14704;SDS011;7442;50.840;3.396;2022-12-18T01:32:01;31.07;;;21.40;;
14704;SDS011;7442;50.840;3.396;2022-12-18T01:34:31;37.40;;;22.65;;
14704;SDS011;7442;50.840;3.396;2022-12-18T01:37:03;35.63;;;22.30;;
14704;SDS011;7442;50.840;3.396;2022-12-18T01:39:33;31.52;;;21.27;;
14704;SDS011;7442;50.840;3.396;2022-12-18T01:42:05;28.02;;;19.67;;
14704;SDS011;7442;50.840;3.396;2022-12-18T01:50:16;31.97;;;20.15;;
14704;SDS011;7442;50.840;3.396;2022-12-18T01:53:12;28.85;;;20.43;;
14704;SDS011;7442;50.840;3.396;2022-12-18T01:55:48;27.55;;;19.57;;
14704;SDS011;7442;50.840;3.396;2022-12-18T01:58:20;27.22;;;19.05;;
14704;SDS011;7442;50.840;3.396;2022-12-18T02:00:54;25.55;;;18.48;;
14704;SDS011;7442;50.840;3.396;2022-12-18T02:03:24;29.02;;;18.95;;
14704;SDS011;7442;50.840;3.396;2022-12-18T02:06:01;27.42;;;19.37;;
14704;SDS011;7442;50.840;3.396;2022-12-18T02:08:35;27.55;;;18.42;;
14704;SDS011;7442;50.840;3.396;2022-12-18T02:11:16;28.55;;;18.57;;
14704;SDS011;7442;50.840;3.396;2022-12-18T02:17:35;24.45;;;17.32;;
14704;SDS011;7442;50.840;3.396;2022-12-18T02:22:34;25.45;;;18.15;;
14704;SDS011;7442;50.840;3.396;2022-12-18T02:27:46;25.80;;;17.40;;
14704;SDS011;7442;50.840;3.396;2022-12-18T02:30:18;26.62;;;16.77;;
14704;SDS011;7442;50.840;3.396;2022-12-18T02:32:49;22.55;;;16.40;;
14704;SDS011;7442;50.840;3.396;2022-12-18T02:35:23;24.85;;;17.02;;
14704;SDS011;7442;50.840;3.396;2022-12-18T02:37:55;25.12;;;16.73;;
14704;SDS011;7442;50.840;3.396;2022-12-18T02:40:26;21.30;;;16.30;;
14704;SDS011;7442;50.840;3.396;2022-12-18T02:43:08;23.27;;;16.62;;
14704;SDS011;7442;50.840;3.396;2022-12-18T02:45:52;22.67;;;16.23;;
14704;SDS011;7442;50.840;3.396;2022-12-18T02:48:22;22.05;;;15.95;;
14704;SDS011;7442;50.840;3.396;2022-12-18T02:51:17;23.00;;;16.20;;
14704;SDS011;7442;50.840;3.396;2022-12-18T02:53:40;19.90;;;14.43;;
14704;SDS011;7442;50.840;3.396;2022-12-18T02:56:20;20.20;;;14.98;;
14704;SDS011;7442;50.840;3.396;2022-12-18T02:58:58;20.17;;;14.80;;
14704;SDS011;7442;50.840;3.396;2022-12-18T03:01:48;17.48;;;13.25;;
14704;SDS011;7442;50.840;3.396;2022-12-18T03:04:24;20.02;;;14.60;;
14704;SDS011;7442;50.840;3.396;2022-12-18T03:07:11;21.52;;;15.55;;
14704;SDS011;7442;50.840;3.396;2022-12-18T03:09:43;18.23;;;14.30;;
14704;SDS011;7442;50.840;3.396;2022-12-18T03:12:35;18.62;;;14.78;;
14704;SDS011;7442;50.840;3.396;2022-12-18T03:15:01;17.92;;;13.90;;
14704;SDS011;7442;50.840;3.396;2022-12-18T03:17:52;18.23;;;13.93;;
14704;SDS011;7442;50.840;3.396;2022-12-18T03:20:23;18.85;;;14.25;;
14704;SDS011;7442;50.840;3.396;2022-12-18T03:23:06;20.12;;;14.85;;
14704;SDS011;7442;50.840;3.396;2022-12-18T03:25:29;20.12;;;14.00;;
14704;SDS011;7442;50.840;3.396;2022-12-18T03:28:00;19.40;;;14.35;;
14704;SDS011;7442;50.840;3.396;2022-12-18T03:30:33;17.10;;;13.28;;
14704;SDS011;7442;50.840;3.396;2022-12-18T03:33:08;19.37;;;14.50;;
14704;SDS011;7442;50.840;3.396;2022-12-18T03:35:41;17.40;;;13.03;;
14704;SDS011;7442;50.840;3.396;2022-12-18T03:38:12;17.60;;;13.18;;
14704;SDS011;7442;50.840;3.396;2022-12-18T03:46:33;18.62;;;13.38;;
14704;SDS011;7442;50.840;3.396;2022-12-18T03:49:26;15.70;;;12.78;;
14704;SDS011;7442;50.840;3.396;2022-12-18T03:52:09;16.87;;;12.65;;
14704;SDS011;7442;50.840;3.396;2022-12-18T03:54:40;15.10;;;12.78;;
14704;SDS011;7442;50.840;3.396;2022-12-18T03:57:17;16.20;;;11.80;;
14704;SDS011;7442;50.840;3.396;2022-12-18T03:59:52;19.62;;;13.30;;
14704;SDS011;7442;50.840;3.396;2022-12-18T04:02:28;16.23;;;12.43;;
14704;SDS011;7442;50.840;3.396;2022-12-18T04:05:00;15.45;;;11.57;;
14704;SDS011;7442;50.840;3.396;2022-12-18T04:07:32;16.07;;;11.93;;
14704;SDS011;7442;50.840;3.396;2022-12-18T04:10:04;14.47;;;11.65;;
14704;SDS011;7442;50.840;3.396;2022-12-18T04:12:36;15.75;;;11.68;;
14704;SDS011;7442;50.840;3.396;2022-12-18T04:15:07;15.60;;;12.03;;
14704;SDS011;7442;50.840;3.396;2022-12-18T04:17:39;14.38;;;10.93;;
14704;SDS011;7442;50.840;3.396;2022-12-18T04:20:11;13.50;;;10.78;;
14704;SDS011;7442;50.840;3.396;2022-12-18T04:22:41;14.23;;;11.30;;
14704;SDS011;7442;50.840;3.396;2022-12-18T04:25:12;17.00;;;11.50;;
14704;SDS011;7442;50.840;3.396;2022-12-18T04:27:42;14.68;;;11.63;;
14704;SDS011;7442;50.840;3.396;2022-12-18T04:30:18;14.30;;;10.90;;
14704;SDS011;7442;50.840;3.396;2022-12-18T04:32:48;14.38;;;11.00;;
14704;SDS011;7442;50.840;3.396;2022-12-18T04:35:18;14.47;;;10.93;;
14704;SDS011;7442;50.840;3.396;2022-12-18T04:37:49;14.45;;;11.28;;
14704;SDS011;7442;50.840;3.396;2022-12-18T04:40:22;13.88;;;11.12;;
14704;SDS011;7442;50.840;3.396;2022-12-18T04:42:52;16.02;;;10.82;;
14704;SDS011;7442;50.840;3.396;2022-12-18T04:45:22;12.78;;;9.93;;
14704;SDS011;7442;50.840;3.396;2022-12-18T04:47:52;12.75;;;10.63;;
14704;SDS011;7442;50.840;3.396;2022-12-18T04:50:22;12.75;;;10.90;;
14704;SDS011;7442;50.840;3.396;2022-12-18T04:52:53;12.82;;;10.03;;
14704;SDS011;7442;50.840;3.396;2022-12-18T04:55:24;12.47;;;9.65;;
14704;SDS011;7442;50.840;3.396;2022-12-18T04:57:55;12.60;;;10.08;;
14704;SDS011;7442;50.840;3.396;2022-12-18T05:00:25;11.53;;;9.63;;
14704;SDS011;7442;50.840;3.396;2022-12-18T05:02:55;11.90;;;9.78;;
14704;SDS011;7442;50.840;3.396;2022-12-18T05:05:25;12.13;;;9.83;;
14704;SDS011;7442;50.840;3.396;2022-12-18T05:07:55;12.80;;;10.20;;
14704;SDS011;7442;50.840;3.396;2022-12-18T05:10:27;14.20;;;10.65;;
14704;SDS011;7442;50.840;3.396;2022-12-18T05:12:57;12.33;;;9.05;;
14704;SDS011;7442;50.840;3.396;2022-12-18T05:15:28;10.95;;;9.50;;
14704;SDS011;7442;50.840;3.396;2022-12-18T05:17:59;11.80;;;9.40;;
14704;SDS011;7442;50.840;3.396;2022-12-18T05:20:30;12.75;;;9.33;;
14704;SDS011;7442;50.840;3.396;2022-12-18T05:23:00;11.20;;;9.48;;
14704;SDS011;7442;50.840;3.396;2022-12-18T05:25:36;10.70;;;9.20;;
14704;SDS011;7442;50.840;3.396;2022-12-18T05:28:12;10.75;;;8.73;;
14704;SDS011;7442;50.840;3.396;2022-12-18T05:30:44;11.63;;;9.50;;
14704;SDS011;7442;50.840;3.396;2022-12-18T05:33:21;10.13;;;8.38;;
14704;SDS011;7442;50.840;3.396;2022-12-18T05:35:58;11.48;;;8.83;;
14704;SDS011;7442;50.840;3.396;2022-12-18T05:38:26;10.75;;;8.70;;
14704;SDS011;7442;50.840;3.396;2022-12-18T05:40:57;11.73;;;9.40;;
14704;SDS011;7442;50.840;3.396;2022-12-18T05:43:28;10.78;;;8.63;;
14704;SDS011;7442;50.840;3.396;2022-12-18T05:46:02;10.72;;;8.63;;
14704;SDS011;7442;50.840;3.396;2022-12-18T05:48:31;11.12;;;8.85;;
14704;SDS011;7442;50.840;3.396;2022-12-18T05:51:09;12.80;;;8.98;;
14704;SDS011;7442;50.840;3.396;2022-12-18T05:53:42;9.88;;;8.60;;
14704;SDS011;7442;50.840;3.396;2022-12-18T05:56:14;11.33;;;8.55;;
14704;SDS011;7442;50.840;3.396;2022-12-18T05:58:46;11.68;;;8.18;;
14704;SDS011;7442;50.840;3.396;2022-12-18T06:01:20;8.78;;;7.78;;
14704;SDS011;7442;50.840;3.396;2022-12-18T06:03:51;9.63;;;8.03;;
14704;SDS011;7442;50.840;3.396;2022-12-18T06:06:27;9.95;;;8.05;;
14704;SDS011;7442;50.840;3.396;2022-12-18T06:08:55;10.72;;;8.13;;
14704;SDS011;7442;50.840;3.396;2022-12-18T06:11:25;9.23;;;8.00;;
14704;SDS011;7442;50.840;3.396;2022-12-18T06:13:56;9.75;;;8.33;;
14704;SDS011;7442;50.840;3.396;2022-12-18T06:16:32;8.98;;;7.85;;
14704;SDS011;7442;50.840;3.396;2022-12-18T06:18:58;8.23;;;7.33;;
14704;SDS011;7442;50.840;3.396;2022-12-18T06:21:30;9.38;;;8.08;;
14704;SDS011;7442;50.840;3.396;2022-12-18T06:24:00;9.63;;;8.33;;
14704;SDS011;7442;50.840;3.396;2022-12-18T06:26:30;10.45;;;8.08;;
14704;SDS011;7442;50.840;3.396;2022-12-18T06:29:00;8.20;;;7.25;;
14704;SDS011;7442;50.840;3.396;2022-12-18T06:31:31;8.75;;;7.42;;
14704;SDS011;7442;50.840;3.396;2022-12-18T06:34:06;9.40;;;7.70;;
14704;SDS011;7442;50.840;3.396;2022-12-18T06:36:33;7.97;;;7.03;;
14704;SDS011;7442;50.840;3.396;2022-12-18T06:39:03;9.50;;;7.55;;
14704;SDS011;7442;50.840;3.396;2022-12-18T06:41:33;8.28;;;7.42;;
14704;SDS011;7442;50.840;3.396;2022-12-18T06:44:03;8.55;;;7.65;;
14704;SDS011;7442;50.840;3.396;2022-12-18T06:46:34;9.55;;;7.58;;
14704;SDS011;7442;50.840;3.396;2022-12-18T06:49:07;10.03;;;7.53;;
14704;SDS011;7442;50.840;3.396;2022-12-18T06:51:37;8.75;;;7.65;;
14704;SDS011;7442;50.840;3.396;2022-12-18T06:54:07;9.78;;;7.90;;
14704;SDS011;7442;50.840;3.396;2022-12-18T06:56:38;8.85;;;7.12;;
14704;SDS011;7442;50.840;3.396;2022-12-18T06:59:08;8.60;;;7.35;;
14704;SDS011;7442;50.840;3.396;2022-12-18T07:01:38;8.83;;;7.67;;
14704;SDS011;7442;50.840;3.396;2022-12-18T07:04:08;8.43;;;7.47;;
14704;SDS011;7442;50.840;3.396;2022-12-18T07:06:39;8.05;;;7.20;;
14704;SDS011;7442;50.840;3.396;2022-12-18T07:09:09;7.97;;;7.00;;
14704;SDS011;7442;50.840;3.396;2022-12-18T07:11:40;9.15;;;7.47;;
14704;SDS011;7442;50.840;3.396;2022-12-18T07:14:10;8.50;;;7.37;;
14704;SDS011;7442;50.840;3.396;2022-12-18T07:16:40;7.67;;;6.92;;
14704;SDS011;7442;50.840;3.396;2022-12-18T07:19:10;8.95;;;7.47;;
14704;SDS011;7442;50.840;3.396;2022-12-18T07:21:40;8.33;;;6.97;;
14704;SDS011;7442;50.840;3.396;2022-12-18T07:24:10;8.05;;;6.80;;
14704;SDS011;7442;50.840;3.396;2022-12-18T07:26:41;8.73;;;7.10;;
14704;SDS011;7442;50.840;3.396;2022-12-18T07:29:11;8.03;;;7.00;;
14704;SDS011;7442;50.840;3.396;2022-12-18T07:31:41;7.70;;;6.62;;
14704;SDS011;7442;50.840;3.396;2022-12-18T07:34:12;10.25;;;7.17;;
14704;SDS011;7442;50.840;3.396;2022-12-18T07:36:43;7.80;;;6.50;;
14704;SDS011;7442;50.840;3.396;2022-12-18T07:39:13;7.33;;;6.42;;
14704;SDS011;7442;50.840;3.396;2022-12-18T07:41:45;7.28;;;5.95;;
14704;SDS011;7442;50.840;3.396;2022-12-18T07:44:16;7.75;;;6.75;;
14704;SDS011;7442;50.840;3.396;2022-12-18T07:46:47;7.40;;;6.58;;
14704;SDS011;7442;50.840;3.396;2022-12-18T07:49:23;8.05;;;6.42;;
14704;SDS011;7442;50.840;3.396;2022-12-18T07:51:54;7.70;;;6.78;;
14704;SDS011;7442;50.840;3.396;2022-12-18T07:54:25;8.15;;;6.37;;
14704;SDS011;7442;50.840;3.396;2022-12-18T07:56:55;7.15;;;6.28;;
14704;SDS011;7442;50.840;3.396;2022-12-18T07:59:25;6.80;;;6.10;;
14704;SDS011;7442;50.840;3.396;2022-12-18T08:02:02;7.92;;;6.42;;
14704;SDS011;7442;50.840;3.396;2022-12-18T08:04:32;7.28;;;6.45;;
14704;SDS011;7442;50.840;3.396;2022-12-18T08:07:02;7.33;;;6.33;;
14704;SDS011;7442;50.840;3.396;2022-12-18T08:09:32;7.03;;;5.92;;
14704;SDS011;7442;50.840;3.396;2022-12-18T08:12:02;7.00;;;6.28;;
14704;SDS011;7442;50.840;3.396;2022-12-18T08:14:33;7.10;;;5.92;;
14704;SDS011;7442;50.840;3.396;2022-12-18T08:17:03;6.58;;;5.87;;
14704;SDS011;7442;50.840;3.396;2022-12-18T08:19:35;6.50;;;5.83;;
14704;SDS011;7442;50.840;3.396;2022-12-18T08:22:05;6.85;;;5.80;;
14704;SDS011;7442;50.840;3.396;2022-12-18T08:24:35;7.08;;;6.37;;
14704;SDS011;7442;50.840;3.396;2022-12-18T08:27:05;7.58;;;6.42;;
14704;SDS011;7442;50.840;3.396;2022-12-18T08:29:35;6.35;;;5.20;;
14704;SDS011;7442;50.840;3.396;2022-12-18T08:32:05;7.12;;;6.37;;
14704;SDS011;7442;50.840;3.396;2022-12-18T08:34:35;6.28;;;5.62;;
14704;SDS011;7442;50.840;3.396;2022-12-18T08:37:06;5.87;;;5.20;;
14704;SDS011;7442;50.840;3.396;2022-12-18T08:39:36;7.00;;;5.47;;
14704;SDS011;7442;50.840;3.396;2022-12-18T08:42:06;6.28;;;5.40;;
14704;SDS011;7442;50.840;3.396;2022-12-18T08:44:54;8.78;;;5.67;;
14704;SDS011;7442;50.840;3.396;2022-12-18T08:47:24;6.40;;;5.80;;
14704;SDS011;7442;50.840;3.396;2022-12-18T08:49:54;6.42;;;5.12;;
14704;SDS011;7442;50.840;3.396;2022-12-18T08:52:24;6.45;;;5.55;;
14704;SDS011;7442;50.840;3.396;2022-12-18T08:54:54;5.90;;;5.20;;
14704;SDS011;7442;50.840;3.396;2022-12-18T08:57:24;7.28;;;5.78;;
14704;SDS011;7442;50.840;3.396;2022-12-18T08:59:54;6.00;;;5.22;;
14704;SDS011;7442;50.840;3.396;2022-12-18T09:02:24;5.80;;;5.20;;
14704;SDS011;7442;50.840;3.396;2022-12-18T09:04:54;6.03;;;5.45;;
14704;SDS011;7442;50.840;3.396;2022-12-18T09:07:24;5.75;;;5.15;;
14704;SDS011;7442;50.840;3.396;2022-12-18T09:09:54;6.40;;;5.65;;
14704;SDS011;7442;50.840;3.396;2022-12-18T09:12:24;6.12;;;5.28;;
14704;SDS011;7442;50.840;3.396;2022-12-18T09:14:54;5.72;;;4.78;;
14704;SDS011;7442;50.840;3.396;2022-12-18T09:17:25;6.08;;;5.47;;
14704;SDS011;7442;50.840;3.396;2022-12-18T09:19:55;6.00;;;5.17;;
14704;SDS011;7442;50.840;3.396;2022-12-18T09:22:26;6.05;;;5.10;;
14704;SDS011;7442;50.840;3.396;2022-12-18T09:24:57;9.08;;;5.50;;
14704;SDS011;7442;50.840;3.396;2022-12-18T09:27:27;11.75;;;5.83;;
14704;SDS011;7442;50.840;3.396;2022-12-18T09:29:58;13.00;;;5.97;;
14704;SDS011;7442;50.840;3.396;2022-12-18T09:32:28;6.72;;;5.05;;
14704;SDS011;7442;50.840;3.396;2022-12-18T09:34:58;6.65;;;4.62;;
14704;SDS011;7442;50.840;3.396;2022-12-18T09:37:28;6.58;;;5.37;;
14704;SDS011;7442;50.840;3.396;2022-12-18T09:39:58;8.40;;;5.75;;
14704;SDS011;7442;50.840;3.396;2022-12-18T09:42:28;10.48;;;5.22;;
14704;SDS011;7442;50.840;3.396;2022-12-18T09:44:58;10.80;;;5.92;;
14704;SDS011;7442;50.840;3.396;2022-12-18T09:47:35;8.38;;;5.85;;
14704;SDS011;7442;50.840;3.396;2022-12-18T09:50:46;9.70;;;5.92;;
14704;SDS011;7442;50.840;3.396;2022-12-18T09:52:46;9.33;;;5.80;;
14704;SDS011;7442;50.840;3.396;2022-12-18T09:55:25;7.53;;;6.20;;
14704;SDS011;7442;50.840;3.396;2022-12-18T09:58:07;7.22;;;5.53;;
14704;SDS011;7442;50.840;3.396;2022-12-18T10:00:59;9.23;;;6.42;;
14704;SDS011;7442;50.840;3.396;2022-12-18T10:03:30;7.78;;;5.95;;
14704;SDS011;7442;50.840;3.396;2022-12-18T10:11:38;7.42;;;5.97;;
14704;SDS011;7442;50.840;3.396;2022-12-18T10:14:11;9.15;;;6.20;;
14704;SDS011;7442;50.840;3.396;2022-12-18T10:22:11;7.37;;;6.10;;
14704;SDS011;7442;50.840;3.396;2022-12-18T10:24:52;21.05;;;6.33;;
14704;SDS011;7442;50.840;3.396;2022-12-18T10:27:27;9.68;;;5.97;;
14704;SDS011;7442;50.840;3.396;2022-12-18T10:30:04;14.20;;;6.22;;
14704;SDS011;7442;50.840;3.396;2022-12-18T10:32:34;10.28;;;6.55;;
14704;SDS011;7442;50.840;3.396;2022-12-18T10:35:08;10.28;;;6.35;;
14704;SDS011;7442;50.840;3.396;2022-12-18T10:37:38;13.32;;;6.33;;
14704;SDS011;7442;50.840;3.396;2022-12-18T10:40:17;10.23;;;6.60;;
14704;SDS011;7442;50.840;3.396;2022-12-18T10:42:44;13.68;;;6.50;;
14704;SDS011;7442;50.840;3.396;2022-12-18T10:45:16;12.20;;;6.20;;
14704;SDS011;7442;50.840;3.396;2022-12-18T10:47:47;14.95;;;6.87;;
14704;SDS011;7442;50.840;3.396;2022-12-18T10:50:35;18.90;;;6.87;;
14704;SDS011;7442;50.840;3.396;2022-12-18T10:53:13;17.02;;;6.55;;
14704;SDS011;7442;50.840;3.396;2022-12-18T10:55:39;10.78;;;6.33;;
14704;SDS011;7442;50.840;3.396;2022-12-18T10:58:35;14.05;;;7.20;;
14704;SDS011;7442;50.840;3.396;2022-12-18T11:01:02;12.80;;;7.05;;
14704;SDS011;7442;50.840;3.396;2022-12-18T11:06:17;13.25;;;6.47;;
14704;SDS011;7442;50.840;3.396;2022-12-18T11:09:00;22.70;;;6.83;;
14704;SDS011;7442;50.840;3.396;2022-12-18T11:11:34;12.60;;;6.47;;
14704;SDS011;7442;50.840;3.396;2022-12-18T11:14:07;28.50;;;7.45;;
14704;SDS011;7442;50.840;3.396;2022-12-18T11:16:58;19.82;;;7.15;;
14704;SDS011;7442;50.840;3.396;2022-12-18T11:19:36;15.70;;;6.83;;
14704;SDS011;7442;50.840;3.396;2022-12-18T11:22:31;15.48;;;7.25;;
14704;SDS011;7442;50.840;3.396;2022-12-18T11:24:55;13.58;;;7.28;;
14704;SDS011;7442;50.840;3.396;2022-12-18T11:27:32;13.75;;;6.33;;
14704;SDS011;7442;50.840;3.396;2022-12-18T11:30:21;13.22;;;6.55;;
14704;SDS011;7442;50.840;3.396;2022-12-18T11:32:55;26.70;;;7.33;;
14704;SDS011;7442;50.840;3.396;2022-12-18T11:38:29;21.10;;;6.60;;
14704;SDS011;7442;50.840;3.396;2022-12-18T11:41:00;14.50;;;6.22;;
14704;SDS011;7442;50.840;3.396;2022-12-18T11:46:37;10.58;;;5.97;;
14704;SDS011;7442;50.840;3.396;2022-12-18T11:49:13;11.83;;;6.55;;
14704;SDS011;7442;50.840;3.396;2022-12-18T11:51:58;11.93;;;6.80;;
14704;SDS011;7442;50.840;3.396;2022-12-18T11:54:33;14.45;;;6.62;;
14704;SDS011;7442;50.840;3.396;2022-12-18T12:00:07;18.90;;;6.40;;
14704;SDS011;7442;50.840;3.396;2022-12-18T12:06:04;12.00;;;6.45;;
14704;SDS011;7442;50.840;3.396;2022-12-18T12:08:42;16.55;;;8.08;;
14704;SDS011;7442;50.840;3.396;2022-12-18T12:11:22;18.15;;;8.08;;
14704;SDS011;7442;50.840;3.396;2022-12-18T12:16:56;17.77;;;7.37;;
14704;SDS011;7442;50.840;3.396;2022-12-18T12:28:01;25.55;;;7.30;;
14704;SDS011;7442;50.840;3.396;2022-12-18T12:36:08;18.98;;;6.62;;
14704;SDS011;7442;50.840;3.396;2022-12-18T12:38:42;19.73;;;7.25;;
14704;SDS011;7442;50.840;3.396;2022-12-18T12:41:14;11.75;;;6.97;;
14704;SDS011;7442;50.840;3.396;2022-12-18T12:44:08;15.15;;;7.35;;
14704;SDS011;7442;50.840;3.396;2022-12-18T12:46:40;11.22;;;6.60;;
14704;SDS011;7442;50.840;3.396;2022-12-18T12:49:14;15.40;;;7.58;;
14704;SDS011;7442;50.840;3.396;2022-12-18T12:51:46;16.10;;;8.38;;
14704;SDS011;7442;50.840;3.396;2022-12-18T12:54:19;23.40;;;8.35;;
14704;SDS011;7442;50.840;3.396;2022-12-18T13:02:50;21.23;;;8.48;;
14704;SDS011;7442;50.840;3.396;2022-12-18T13:08:11;34.33;;;8.95;;
14704;SDS011;7442;50.840;3.396;2022-12-18T13:10:44;15.28;;;8.55;;
14704;SDS011;7442;50.840;3.396;2022-12-18T13:13:14;15.43;;;8.60;;
14704;SDS011;7442;50.840;3.396;2022-12-18T13:15:46;12.90;;;8.28;;
14704;SDS011;7442;50.840;3.396;2022-12-18T13:18:21;15.85;;;9.10;;
14704;SDS011;7442;50.840;3.396;2022-12-18T13:23:30;15.63;;;9.20;;
14704;SDS011;7442;50.840;3.396;2022-12-18T13:34:15;17.70;;;9.23;;
14704;SDS011;7442;50.840;3.396;2022-12-18T13:36:46;16.57;;;8.85;;
14704;SDS011;7442;50.840;3.396;2022-12-18T13:41:52;12.60;;;7.85;;
14704;SDS011;7442;50.840;3.396;2022-12-18T13:44:42;13.63;;;8.63;;
14704;SDS011;7442;50.840;3.396;2022-12-18T13:47:25;14.55;;;8.03;;
14704;SDS011;7442;50.840;3.396;2022-12-18T13:50:20;15.40;;;7.75;;
14704;SDS011;7442;50.840;3.396;2022-12-18T13:52:41;16.55;;;8.38;;
14704;SDS011;7442;50.840;3.396;2022-12-18T13:55:16;14.58;;;8.23;;
14704;SDS011;7442;50.840;3.396;2022-12-18T13:57:48;12.47;;;8.13;;
14704;SDS011;7442;50.840;3.396;2022-12-18T14:02:57;14.85;;;7.20;;
14704;SDS011;7442;50.840;3.396;2022-12-18T14:05:32;14.15;;;7.87;;
14704;SDS011;7442;50.840;3.396;2022-12-18T14:08:12;13.90;;;8.10;;
14704;SDS011;7442;50.840;3.396;2022-12-18T14:10:43;15.28;;;8.55;;
14704;SDS011;7442;50.840;3.396;2022-12-18T14:13:33;14.90;;;8.70;;
14704;SDS011;7442;50.840;3.396;2022-12-18T14:16:03;12.70;;;8.50;;
14704;SDS011;7442;50.840;3.396;2022-12-18T14:18:41;12.90;;;8.15;;
14704;SDS011;7442;50.840;3.396;2022-12-18T14:21:22;12.70;;;8.00;;
14704;SDS011;7442;50.840;3.396;2022-12-18T14:24:12;11.78;;;8.53;;
14704;SDS011;7442;50.840;3.396;2022-12-18T14:26:39;15.72;;;8.73;;
14704;SDS011;7442;50.840;3.396;2022-12-18T14:29:31;13.53;;;8.70;;
14704;SDS011;7442;50.840;3.396;2022-12-18T14:32:11;14.43;;;8.50;;
14704;SDS011;7442;50.840;3.396;2022-12-18T14:34:42;17.85;;;8.83;;
14704;SDS011;7442;50.840;3.396;2022-12-18T14:37:14;16.97;;;9.38;;
14704;SDS011;7442;50.840;3.396;2022-12-18T14:39:52;15.45;;;8.70;;
14704;SDS011;7442;50.840;3.396;2022-12-18T14:42:33;13.53;;;7.97;;
14704;SDS011;7442;50.840;3.396;2022-12-18T14:47:21;14.43;;;8.30;;
14704;SDS011;7442;50.840;3.396;2022-12-18T14:49:51;13.95;;;8.48;;
14704;SDS011;7442;50.840;3.396;2022-12-18T14:52:23;12.40;;;9.30;;
14704;SDS011;7442;50.840;3.396;2022-12-18T14:54:54;15.25;;;8.73;;
14704;SDS011;7442;50.840;3.396;2022-12-18T14:57:25;14.80;;;9.20;;
14704;SDS011;7442;50.840;3.396;2022-12-18T15:00:10;17.15;;;9.95;;
14704;SDS011;7442;50.840;3.396;2022-12-18T15:02:50;15.20;;;9.03;;
14704;SDS011;7442;50.840;3.396;2022-12-18T15:05:28;17.32;;;9.30;;
14704;SDS011;7442;50.840;3.396;2022-12-18T15:08:25;11.65;;;8.93;;
14704;SDS011;7442;50.840;3.396;2022-12-18T15:10:45;11.33;;;8.83;;
14704;SDS011;7442;50.840;3.396;2022-12-18T15:13:20;14.83;;;9.13;;
14704;SDS011;7442;50.840;3.396;2022-12-18T15:15:54;13.80;;;9.13;;
14704;SDS011;7442;50.840;3.396;2022-12-18T15:18:29;14.45;;;8.95;;
14704;SDS011;7442;50.840;3.396;2022-12-18T15:21:03;16.73;;;8.85;;
14704;SDS011;7442;50.840;3.396;2022-12-18T15:26:21;42.20;;;27.55;;
14704;SDS011;7442;50.840;3.396;2022-12-18T15:28:51;38.80;;;22.17;;
14704;SDS011;7442;50.840;3.396;2022-12-18T15:34:01;27.45;;;18.80;;
14704;SDS011;7442;50.840;3.396;2022-12-18T15:36:38;23.27;;;18.02;;
14704;SDS011;7442;50.840;3.396;2022-12-18T15:39:10;27.35;;;17.00;;
14704;SDS011;7442;50.840;3.396;2022-12-18T15:41:40;29.45;;;15.65;;
14704;SDS011;7442;50.840;3.396;2022-12-18T15:44:20;24.50;;;15.25;;
14704;SDS011;7442;50.840;3.396;2022-12-18T15:46:58;23.05;;;15.32;;
14704;SDS011;7442;50.840;3.396;2022-12-18T15:49:28;23.55;;;14.30;;
14704;SDS011;7442;50.840;3.396;2022-12-18T15:51:58;20.17;;;13.70;;
14704;SDS011;7442;50.840;3.396;2022-12-18T15:54:30;18.82;;;13.55;;
14704;SDS011;7442;50.840;3.396;2022-12-18T15:57:19;18.35;;;12.98;;
14704;SDS011;7442;50.840;3.396;2022-12-18T15:59:52;17.65;;;11.88;;
14704;SDS011;7442;50.840;3.396;2022-12-18T16:02:26;15.28;;;11.88;;
14704;SDS011;7442;50.840;3.396;2022-12-18T16:04:57;17.85;;;10.60;;
14704;SDS011;7442;50.840;3.396;2022-12-18T16:07:29;18.85;;;11.20;;
14704;SDS011;7442;50.840;3.396;2022-12-18T16:09:59;16.40;;;10.58;;
14704;SDS011;7442;50.840;3.396;2022-12-18T16:12:31;16.70;;;11.05;;
14704;SDS011;7442;50.840;3.396;2022-12-18T16:15:03;16.25;;;10.90;;
14704;SDS011;7442;50.840;3.396;2022-12-18T16:17:34;16.02;;;11.12;;
14704;SDS011;7442;50.840;3.396;2022-12-18T16:20:04;15.85;;;10.43;;
14704;SDS011;7442;50.840;3.396;2022-12-18T16:22:36;17.80;;;10.65;;
14704;SDS011;7442;50.840;3.396;2022-12-18T16:44:54;14.83;;;10.78;;
14704;SDS011;7442;50.840;3.396;2022-12-18T16:47:24;15.15;;;11.38;;
14704;SDS011;7442;50.840;3.396;2022-12-18T16:49:54;13.65;;;10.38;;
14704;SDS011;7442;50.840;3.396;2022-12-18T16:52:24;11.30;;;9.20;;
14704;SDS011;7442;50.840;3.396;2022-12-18T16:54:55;11.38;;;10.13;;
14704;SDS011;7442;50.840;3.396;2022-12-18T16:57:26;12.68;;;9.90;;
14704;SDS011;7442;50.840;3.396;2022-12-18T16:59:56;13.93;;;10.13;;
14704;SDS011;7442;50.840;3.396;2022-12-18T17:02:26;12.37;;;10.05;;
14704;SDS011;7442;50.840;3.396;2022-12-18T17:04:56;10.72;;;9.63;;
14704;SDS011;7442;50.840;3.396;2022-12-18T17:07:27;11.63;;;9.63;;
14704;SDS011;7442;50.840;3.396;2022-12-18T17:16:31;12.58;;;9.90;;
14704;SDS011;7442;50.840;3.396;2022-12-18T17:19:13;17.45;;;9.35;;
14704;SDS011;7442;50.840;3.396;2022-12-18T17:21:46;15.75;;;9.65;;
14704;SDS011;7442;50.840;3.396;2022-12-18T17:24:18;15.15;;;9.18;;
14704;SDS011;7442;50.840;3.396;2022-12-18T17:26:48;15.75;;;9.33;;